Time;durP1;ratioP1;P1;durP2;ratioP2;P2;SDS_P1;SDS_P2;PMS_P1;PMS_P2;Temp;Humidity;BMP_temperature;BMP_pressure;BME280_temperature;BME280_humidity;BME280_pressure;Samples;Min_cycle;Max_cycle;Signal;HPM_P1;HPM_P2
2021/12/27 00:00:14;;;;;;;23.23;13.77;;;-0.50;99.90;;;;;;4817704;29;20060;-77
2021/12/27 00:02:41;;;;;;;23.52;14.20;;;-0.60;99.90;;;;;;4836045;29;20053;-77
2021/12/27 00:05:07;;;;;;;24.00;14.68;;;-0.50;99.90;;;;;;4810539;29;20042;-77
2021/12/27 00:07:33;;;;;;;23.98;14.52;;;-0.60;99.90;;;;;;4823501;29;20120;-77
2021/12/27 00:10:00;;;;;;;22.73;13.47;;;-0.50;99.90;;;;;;4788322;29;20186;-77
2021/12/27 00:12:26;;;;;;;24.80;14.20;;;-0.60;99.90;;;;;;4813909;29;20045;-77
2021/12/27 00:14:52;;;;;;;27.77;14.75;;;-0.50;99.90;;;;;;4824110;29;20053;-77
2021/12/27 00:17:18;;;;;;;25.90;14.50;;;-0.50;99.90;;;;;;4823541;29;20076;-77
2021/12/27 00:19:43;;;;;;;28.40;14.63;;;-0.50;99.90;;;;;;4803594;29;20136;-77
2021/12/27 00:22:09;;;;;;;27.67;14.53;;;-0.50;99.90;;;;;;4808068;29;20194;-77
2021/12/27 00:24:35;;;;;;;24.03;14.93;;;-0.50;99.90;;;;;;4813531;29;20072;-79
2021/12/27 00:27:01;;;;;;;24.83;14.50;;;-0.50;99.90;;;;;;4816621;29;20343;-78
2021/12/27 00:29:26;;;;;;;26.20;14.27;;;-0.50;99.90;;;;;;4826945;29;20418;-78
2021/12/27 00:31:52;;;;;;;24.57;14.63;;;-0.50;99.90;;;;;;4819470;29;20048;-77
2021/12/27 00:34:18;;;;;;;24.67;14.73;;;-0.50;99.90;;;;;;4809294;29;20056;-77
2021/12/27 00:36:44;;;;;;;26.73;15.27;;;-0.50;99.90;;;;;;4819621;29;20437;-77
2021/12/27 00:39:09;;;;;;;24.50;15.20;;;-0.40;99.90;;;;;;4822647;29;20045;-77
2021/12/27 00:41:36;;;;;;;24.27;15.13;;;-0.40;99.90;;;;;;4816796;29;20086;-77
2021/12/27 00:44:02;;;;;;;26.83;14.77;;;-0.40;99.90;;;;;;4830160;29;20109;-77
2021/12/27 00:46:27;;;;;;;26.05;15.35;;;-0.40;99.90;;;;;;4809512;29;20518;-77
2021/12/27 00:48:53;;;;;;;25.50;16.00;;;-0.40;99.90;;;;;;4811099;29;20088;-77
2021/12/27 00:51:19;;;;;;;24.33;14.77;;;-0.30;99.90;;;;;;4824680;29;20052;-77
2021/12/27 00:53:45;;;;;;;26.50;15.60;;;-0.40;99.90;;;;;;4824870;29;20049;-78
2021/12/27 00:56:10;;;;;;;27.77;16.43;;;-0.30;99.90;;;;;;4791016;29;20049;-77
2021/12/27 00:58:36;;;;;;;26.33;15.87;;;-0.20;99.90;;;;;;4835003;29;20289;-77
2021/12/27 01:01:02;;;;;;;24.63;13.80;;;-0.30;99.90;;;;;;4805424;29;20474;-77
2021/12/27 01:03:28;;;;;;;26.15;15.48;;;-0.30;99.90;;;;;;4806307;29;20050;-77
2021/12/27 01:05:54;;;;;;;27.63;16.27;;;-0.30;99.90;;;;;;4786900;29;20572;-77
2021/12/27 01:08:20;;;;;;;24.57;14.80;;;-0.30;99.90;;;;;;4792563;29;20124;-78
2021/12/27 01:13:40;;;;;;;21.48;14.35;;;-0.30;99.90;;;;;;4837593;29;20057;-77
2021/12/27 01:18:34;;;;;;;25.98;14.80;;;-0.20;99.90;;;;;;4834421;29;19919;-78
2021/12/27 01:21:00;;;;;;;24.85;15.25;;;-0.20;99.90;;;;;;4821036;29;20141;-78
2021/12/27 01:23:26;;;;;;;24.50;15.30;;;-0.20;99.90;;;;;;4806709;29;20494;-77
2021/12/27 01:25:52;;;;;;;27.15;15.63;;;-0.10;99.90;;;;;;4837335;29;20053;-77
2021/12/27 01:28:19;;;;;;;24.50;14.87;;;-0.30;99.90;;;;;;4799331;29;20041;-78
2021/12/27 01:30:49;;;;;;;25.85;15.82;;;-0.20;99.90;;;;;;4797921;29;20050;-77
2021/12/27 01:33:17;;;;;;;27.05;15.65;;;-0.20;99.90;;;;;;4822278;29;20064;-78
2021/12/27 01:35:43;;;;;;;28.88;15.93;;;-0.20;99.90;;;;;;4814509;29;20053;-80
2021/12/27 01:38:12;;;;;;;28.38;16.33;;;-0.10;99.90;;;;;;4829742;29;20533;-79
2021/12/27 01:40:39;;;;;;;23.42;14.48;;;-0.20;99.90;;;;;;4837767;29;20387;-79
2021/12/27 01:43:20;;;;;;;25.73;15.80;;;-0.10;99.90;;;;;;4811952;29;20049;-79
2021/12/27 01:45:57;;;;;;;24.42;14.70;;;-0.10;99.90;;;;;;4839233;29;20042;-79
2021/12/27 01:48:25;;;;;;;25.42;15.35;;;-0.10;99.90;;;;;;4830268;29;20049;-79
2021/12/27 01:50:53;;;;;;;26.25;15.60;;;-0.10;99.90;;;;;;4837461;29;20049;-79
2021/12/27 01:53:21;;;;;;;25.15;16.05;;;-0.10;99.90;;;;;;4820256;29;20056;-79
2021/12/27 01:55:48;;;;;;;26.13;15.00;;;-0.10;99.90;;;;;;4815275;29;20044;-79
2021/12/27 01:58:14;;;;;;;28.80;16.42;;;-0.10;99.90;;;;;;4809241;29;20939;-80
2021/12/27 02:00:44;;;;;;;26.00;16.00;;;-0.10;99.90;;;;;;4841480;29;20041;-79
2021/12/27 02:03:10;;;;;;;27.85;15.80;;;-0.10;99.90;;;;;;4838075;29;20046;-79
2021/12/27 02:05:39;;;;;;;27.43;16.63;;;-0.10;99.90;;;;;;4836208;29;20045;-79
2021/12/27 02:08:05;;;;;;;28.30;17.33;;;-0.10;99.90;;;;;;4832274;29;20326;-79
2021/12/27 02:10:32;;;;;;;27.90;16.17;;;-0.10;99.90;;;;;;4829328;29;20038;-79
2021/12/27 02:13:00;;;;;;;26.13;15.75;;;-0.10;99.90;;;;;;4822525;29;20073;-79
2021/12/27 02:15:25;;;;;;;28.20;17.05;;;-0.10;99.90;;;;;;4819890;29;20042;-79
2021/12/27 02:17:51;;;;;;;27.47;16.73;;;-0.10;99.90;;;;;;4833324;29;20029;-79
2021/12/27 02:20:29;;;;;;;29.03;16.70;;;-0.10;99.90;;;;;;4834763;29;20037;-78
2021/12/27 02:23:00;;;;;;;27.05;16.38;;;-0.10;99.90;;;;;;4825932;29;20469;-79
2021/12/27 02:25:29;;;;;;;29.50;16.70;;;-0.10;99.90;;;;;;4795809;29;20045;-78
2021/12/27 02:27:55;;;;;;;27.60;16.90;;;-0.10;99.90;;;;;;4831635;29;20041;-78
2021/12/27 02:30:22;;;;;;;26.83;16.10;;;0.00;99.90;;;;;;4824069;29;20463;-78
2021/12/27 02:32:49;;;;;;;27.30;16.75;;;0.00;99.90;;;;;;4812084;29;20757;-78
2021/12/27 02:35:23;;;;;;;28.75;16.85;;;0.00;99.90;;;;;;4824433;29;20538;-79
2021/12/27 02:37:50;;;;;;;28.38;16.92;;;0.00;99.90;;;;;;4837331;29;20053;-78
2021/12/27 02:40:17;;;;;;;30.73;17.02;;;0.00;99.90;;;;;;4804713;29;20038;-78
2021/12/27 02:43:13;;;;;;;27.40;16.75;;;0.00;99.90;;;;;;4816480;29;20467;-78
2021/12/27 02:45:48;;;;;;;27.00;16.48;;;0.00;99.90;;;;;;4817907;29;20057;-79
2021/12/27 02:48:15;;;;;;;;;;;0.00;99.90;;;;;;4831183;29;20045;-79
2021/12/27 02:50:43;;;;;;;27.10;16.50;;;0.00;99.90;;;;;;4817781;29;19924;-78
2021/12/27 02:53:09;;;;;;;26.70;16.65;;;0.10;99.90;;;;;;4818080;29;20052;-79
2021/12/27 02:55:36;;;;;;;27.00;16.38;;;0.00;99.90;;;;;;4807713;29;20042;-78
2021/12/27 02:58:03;;;;;;;28.88;15.98;;;0.00;99.90;;;;;;4819980;29;20074;-78
2021/12/27 03:00:35;;;;;;;29.52;17.27;;;0.10;99.90;;;;;;4809317;29;20586;-78
2021/12/27 03:03:01;;;;;;;28.90;15.95;;;0.10;99.90;;;;;;4815273;29;20053;-78
2021/12/27 03:05:27;;;;;;;26.87;15.70;;;0.10;99.90;;;;;;4820821;29;20109;-78
2021/12/27 03:07:54;;;;;;;28.77;16.95;;;0.10;99.90;;;;;;4836734;29;20147;-78
2021/12/27 03:10:27;;;;;;;30.75;17.92;;;0.10;99.90;;;;;;4808303;29;20128;-78
2021/12/27 03:12:54;;;;;;;26.55;16.42;;;0.10;99.90;;;;;;4823968;29;20037;-78
2021/12/27 03:15:24;;;;;;;29.40;17.20;;;0.10;99.90;;;;;;4809292;29;20045;-78
2021/12/27 03:17:53;;;;;;;29.73;17.90;;;0.10;99.90;;;;;;4819291;29;20045;-78
2021/12/27 03:20:22;;;;;;;28.67;17.20;;;0.10;99.90;;;;;;4826789;29;20416;-78
2021/12/27 03:22:48;;;;;;;28.58;17.65;;;0.10;99.90;;;;;;4825402;29;20045;-78
2021/12/27 03:25:21;;;;;;;31.23;17.17;;;0.10;99.90;;;;;;4808899;29;20658;-78
2021/12/27 03:27:47;;;;;;;28.50;16.65;;;0.10;99.90;;;;;;4818890;29;20503;-78
2021/12/27 03:30:19;;;;;;;28.23;17.57;;;0.10;99.90;;;;;;4804123;29;20049;-78
2021/12/27 03:32:45;;;;;;;27.55;17.15;;;0.10;99.90;;;;;;4839320;29;20863;-78
2021/12/27 03:35:15;;;;;;;29.77;17.83;;;0.20;99.90;;;;;;4823562;29;20410;-78
2021/12/27 03:37:50;;;;;;;28.90;16.42;;;0.20;99.90;;;;;;4796487;29;20049;-78
2021/12/27 03:40:18;;;;;;;29.52;17.80;;;0.20;99.90;;;;;;4823644;29;20049;-78
2021/12/27 03:42:49;;;;;;;27.83;16.77;;;0.20;99.90;;;;;;4824475;29;20346;-78
2021/12/27 03:45:17;;;;;;;28.83;17.42;;;0.20;99.90;;;;;;4795964;29;20045;-78
2021/12/27 03:47:43;;;;;;;27.15;16.88;;;0.20;99.90;;;;;;4834434;29;20052;-80
2021/12/27 03:50:10;;;;;;;30.35;18.20;;;0.30;99.90;;;;;;4835850;29;20045;-79
2021/12/27 03:52:37;;;;;;;32.45;18.30;;;0.30;99.90;;;;;;4808617;29;20049;-79
2021/12/27 03:55:05;;;;;;;29.83;19.48;;;0.30;99.90;;;;;;4827681;29;20428;-80
2021/12/27 03:57:32;;;;;;;35.33;19.98;;;0.30;99.90;;;;;;4823218;29;20050;-80
2021/12/27 04:00:16;;;;;;;33.10;19.38;;;0.30;99.90;;;;;;4799441;29;20046;-80
2021/12/27 04:02:42;;;;;;;35.50;20.42;;;0.30;99.90;;;;;;4820871;29;20046;-80
2021/12/27 04:05:09;;;;;;;40.28;21.95;;;0.30;99.90;;;;;;4848211;29;20037;-81
2021/12/27 04:07:39;;;;;;;34.50;20.90;;;0.20;99.90;;;;;;4816914;29;20054;-80
2021/12/27 04:10:09;;;;;;;36.42;21.50;;;0.30;99.90;;;;;;4837248;29;20042;-80
2021/12/27 04:12:36;;;;;;;39.05;22.25;;;0.20;99.90;;;;;;4835023;29;20050;-80
2021/12/27 04:15:04;;;;;;;38.50;22.70;;;0.20;99.90;;;;;;4821738;29;20053;-79
2021/12/27 04:17:30;;;;;;;38.67;22.05;;;0.20;99.90;;;;;;4836791;29;20046;-79
2021/12/27 04:19:56;;;;;;;39.17;22.47;;;0.20;99.90;;;;;;4819732;29;20045;-79
2021/12/27 04:22:22;;;;;;;40.07;22.33;;;0.20;99.90;;;;;;4815606;29;20049;-79
2021/12/27 04:24:48;;;;;;;37.33;22.90;;;0.20;99.90;;;;;;4835564;29;20316;-79
2021/12/27 04:27:14;;;;;;;43.13;22.67;;;0.20;99.90;;;;;;4815114;29;20498;-79
2021/12/27 04:29:39;;;;;;;49.87;24.43;;;0.20;99.90;;;;;;4806360;29;20046;-79
2021/12/27 04:32:06;;;;;;;45.30;25.00;;;0.20;99.90;;;;;;4827444;29;20037;-79
2021/12/27 04:34:31;;;;;;;45.05;24.55;;;0.20;99.90;;;;;;4822534;29;20049;-79
2021/12/27 04:36:57;;;;;;;44.20;23.63;;;0.10;99.90;;;;;;4838542;29;20037;-79
2021/12/27 04:39:23;;;;;;;43.03;23.37;;;0.20;99.90;;;;;;4804279;29;20057;-79
2021/12/27 04:41:49;;;;;;;45.50;24.90;;;0.20;99.90;;;;;;4818093;29;20049;-79
2021/12/27 04:44:16;;;;;;;42.90;24.30;;;0.20;99.90;;;;;;4833146;29;20061;-79
2021/12/27 04:46:42;;;;;;;47.33;24.58;;;0.10;99.90;;;;;;4820036;29;20053;-79
2021/12/27 04:49:08;;;;;;;41.03;23.77;;;0.20;99.90;;;;;;4823202;29;20041;-79
2021/12/27 04:51:33;;;;;;;40.27;23.23;;;0.10;99.90;;;;;;4818562;29;20065;-79
2021/12/27 04:53:59;;;;;;;42.97;23.63;;;0.20;99.90;;;;;;4822804;29;20503;-79
2021/12/27 04:56:25;;;;;;;44.28;24.88;;;0.20;99.90;;;;;;4829485;29;20042;-79
2021/12/27 04:58:51;;;;;;;48.43;25.07;;;0.20;99.90;;;;;;4838173;29;20507;-79
2021/12/27 05:01:17;;;;;;;46.93;23.73;;;0.20;99.90;;;;;;4815414;29;20554;-79
2021/12/27 05:03:43;;;;;;;46.58;24.65;;;0.20;99.90;;;;;;4824866;29;20085;-79
2021/12/27 05:06:09;;;;;;;46.15;25.65;;;0.20;99.90;;;;;;4820391;29;20058;-79
2021/12/27 05:08:35;;;;;;;47.25;26.17;;;0.20;99.90;;;;;;4833165;29;20062;-79
2021/12/27 05:11:01;;;;;;;47.27;25.80;;;0.20;99.90;;;;;;4827240;29;20038;-79
2021/12/27 05:13:31;;;;;;;48.08;25.58;;;0.10;99.90;;;;;;4822487;29;20076;-79
2021/12/27 05:15:58;;;;;;;50.67;26.75;;;0.20;99.90;;;;;;4816467;29;20044;-79
2021/12/27 05:18:24;;;;;;;44.17;23.92;;;0.20;99.90;;;;;;4804082;29;20052;-79
2021/12/27 05:20:50;;;;;;;47.83;26.30;;;0.20;99.90;;;;;;4825560;29;20128;-79
2021/12/27 05:23:15;;;;;;;44.97;25.70;;;0.20;99.90;;;;;;4829716;29;20096;-79
2021/12/27 05:25:41;;;;;;;46.87;24.47;;;0.20;99.90;;;;;;4827763;29;20053;-79
2021/12/27 05:28:09;;;;;;;48.10;25.52;;;0.20;99.90;;;;;;4838375;29;20093;-79
2021/12/27 05:30:35;;;;;;;43.53;25.30;;;0.20;99.90;;;;;;4805654;29;20046;-79
2021/12/27 05:33:01;;;;;;;50.15;26.35;;;0.20;99.90;;;;;;4822949;29;20495;-79
2021/12/27 05:35:27;;;;;;;50.70;25.50;;;0.20;99.90;;;;;;4837306;29;20459;-79
2021/12/27 05:37:53;;;;;;;51.60;26.53;;;0.20;99.90;;;;;;4833487;29;20114;-79
2021/12/27 05:40:22;;;;;;;48.28;24.80;;;0.20;99.90;;;;;;4851440;29;20041;-79
2021/12/27 05:42:53;;;;;;;51.38;25.15;;;0.20;99.90;;;;;;4833325;29;20057;-79
2021/12/27 05:45:19;;;;;;;51.13;25.92;;;0.20;99.90;;;;;;4846651;29;20049;-79
2021/12/27 05:47:46;;;;;;;48.88;25.67;;;0.20;99.90;;;;;;4832205;29;20045;-80
2021/12/27 05:50:14;;;;;;;49.90;24.60;;;0.20;99.90;;;;;;4822490;29;20038;-80
2021/12/27 05:52:40;;;;;;;49.05;25.77;;;0.30;99.90;;;;;;4835524;29;20067;-80
2021/12/27 05:55:08;;;;;;;50.25;25.55;;;0.30;99.90;;;;;;4835880;29;20045;-80
2021/12/27 05:57:34;;;;;;;50.35;25.60;;;0.20;99.90;;;;;;4825186;29;20530;-80
2021/12/27 06:00:01;;;;;;;48.13;25.77;;;0.30;99.90;;;;;;4820952;29;20045;-80
2021/12/27 06:02:27;;;;;;;52.17;26.20;;;0.30;99.90;;;;;;4849726;29;20042;-80
2021/12/27 06:04:52;;;;;;;46.20;24.83;;;0.30;99.90;;;;;;4820148;29;20097;-80
2021/12/27 06:07:18;;;;;;;54.67;26.27;;;0.30;99.90;;;;;;4832662;29;20293;-80
2021/12/27 06:09:44;;;;;;;50.53;25.03;;;0.30;99.90;;;;;;4820037;29;20597;-80
2021/12/27 06:12:10;;;;;;;49.50;25.37;;;0.20;99.90;;;;;;4834659;29;20049;-80
2021/12/27 06:14:36;;;;;;;57.17;27.77;;;0.30;99.90;;;;;;4807479;29;20162;-80
2021/12/27 06:17:02;;;;;;;51.00;26.73;;;0.30;99.90;;;;;;4821969;29;20550;-80
2021/12/27 06:19:27;;;;;;;53.53;26.17;;;0.30;99.90;;;;;;4843202;29;20424;-80
2021/12/27 06:21:54;;;;;;;55.07;26.57;;;0.30;99.90;;;;;;4808813;29;20788;-80
2021/12/27 06:24:20;;;;;;;51.83;26.13;;;0.30;99.90;;;;;;4820116;29;20515;-80
2021/12/27 06:26:46;;;;;;;54.10;27.53;;;0.40;99.90;;;;;;4818463;29;20053;-80
2021/12/27 06:29:11;;;;;;;54.00;27.23;;;0.40;99.90;;;;;;4818940;29;20038;-80
2021/12/27 06:31:37;;;;;;;56.90;25.97;;;0.30;99.90;;;;;;4820902;29;20269;-80
2021/12/27 06:34:03;;;;;;;58.67;26.73;;;0.40;99.90;;;;;;4814537;29;20091;-80
2021/12/27 06:36:29;;;;;;;57.00;26.40;;;0.40;99.90;;;;;;4817322;29;20423;-81
2021/12/27 06:38:55;;;;;;;61.67;28.57;;;0.40;99.90;;;;;;4802008;29;20045;-80
2021/12/27 06:41:24;;;;;;;57.87;26.63;;;0.40;99.90;;;;;;4836317;29;20052;-80
2021/12/27 06:43:53;;;;;;;56.05;27.17;;;0.40;99.90;;;;;;4822529;29;20506;-80
2021/12/27 06:46:19;;;;;;;57.00;27.17;;;0.40;99.90;;;;;;4836518;29;20068;-80
2021/12/27 06:48:45;;;;;;;57.37;26.27;;;0.40;99.90;;;;;;4822061;29;20045;-80
2021/12/27 06:51:11;;;;;;;63.67;27.93;;;0.40;99.90;;;;;;4804292;29;20104;-80
2021/12/27 06:53:37;;;;;;;59.40;26.93;;;0.40;99.90;;;;;;4813207;29;20050;-80
2021/12/27 06:56:04;;;;;;;55.90;27.47;;;0.40;99.90;;;;;;4822021;29;20038;-80
2021/12/27 06:58:30;;;;;;;52.63;26.15;;;0.40;99.90;;;;;;4822006;29;20098;-80
2021/12/27 07:00:56;;;;;;;54.05;26.92;;;0.40;99.90;;;;;;4847317;29;20045;-80
2021/12/27 07:03:22;;;;;;;61.40;28.73;;;0.40;99.90;;;;;;4822852;29;20046;-80
2021/12/27 07:05:51;;;;;;;62.83;29.73;;;0.40;99.90;;;;;;4816536;29;20479;-80
2021/12/27 07:08:18;;;;;;;56.53;28.73;;;0.40;99.90;;;;;;4804922;29;20329;-80
2021/12/27 07:10:45;;;;;;;61.90;28.90;;;0.40;99.90;;;;;;4820839;29;20094;-80
2021/12/27 07:13:10;;;;;;;64.55;28.70;;;0.40;99.90;;;;;;4821611;29;20021;-81
2021/12/27 07:15:41;;;;;;;64.70;30.30;;;0.40;99.90;;;;;;4834139;29;20042;-80
2021/12/27 07:18:12;;;;;;;69.30;29.52;;;0.40;99.90;;;;;;4817049;29;20091;-80
2021/12/27 07:20:40;;;;;;;64.82;29.17;;;0.40;99.90;;;;;;4828613;29;20038;-80
2021/12/27 07:23:07;;;;;;;68.85;29.98;;;0.40;99.90;;;;;;4817801;29;20072;-80
2021/12/27 07:25:34;;;;;;;72.70;29.50;;;0.40;99.90;;;;;;4826981;29;20083;-80
2021/12/27 07:27:59;;;;;;;73.97;30.50;;;0.40;99.90;;;;;;4818593;29;20046;-80
2021/12/27 07:30:26;;;;;;;65.10;28.43;;;0.40;99.90;;;;;;4835069;29;20029;-80
2021/12/27 07:32:52;;;;;;;73.65;30.75;;;0.50;99.90;;;;;;4822054;29;20085;-80
2021/12/27 07:35:17;;;;;;;84.30;32.30;;;0.40;99.90;;;;;;4819595;29;20065;-80
2021/12/27 07:37:43;;;;;;;73.07;30.87;;;0.40;99.90;;;;;;4818016;29;20053;-80
2021/12/27 07:40:10;;;;;;;81.70;31.03;;;0.50;99.90;;;;;;4805136;29;20077;-80
2021/12/27 07:42:36;;;;;;;86.00;32.65;;;0.40;99.90;;;;;;4849736;29;20052;-80
2021/12/27 07:45:03;;;;;;;95.80;34.97;;;0.50;99.90;;;;;;4805780;29;20443;-80
2021/12/27 07:47:29;;;;;;;93.55;32.80;;;0.50;99.90;;;;;;4834486;29;20048;-80
2021/12/27 07:49:55;;;;;;;90.70;33.70;;;0.50;99.90;;;;;;4821704;29;20044;-80
2021/12/27 07:52:21;;;;;;;98.53;34.77;;;0.50;99.90;;;;;;4820211;29;20290;-80
2021/12/27 07:54:46;;;;;;;104.10;35.33;;;0.50;99.90;;;;;;4816929;29;20042;-80
2021/12/27 07:57:12;;;;;;;114.30;37.50;;;0.50;99.90;;;;;;4803312;29;20050;-80
2021/12/27 07:59:39;;;;;;;96.03;34.23;;;0.50;99.90;;;;;;4804279;29;20053;-80
2021/12/27 08:02:05;;;;;;;109.82;36.65;;;0.60;99.90;;;;;;4835305;29;20049;-80
2021/12/27 08:04:30;;;;;;;91.43;34.03;;;0.50;99.90;;;;;;4818274;29;20102;-80
2021/12/27 08:06:56;;;;;;;117.80;38.77;;;0.50;99.90;;;;;;4819811;29;20318;-80
2021/12/27 08:09:25;;;;;;;91.80;35.00;;;0.50;99.90;;;;;;4830162;29;20041;-80
2021/12/27 08:11:51;;;;;;;105.38;34.80;;;0.50;99.90;;;;;;4832359;29;20045;-80
2021/12/27 08:14:17;;;;;;;112.75;36.70;;;0.50;99.90;;;;;;4819710;29;20113;-80
2021/12/27 08:16:43;;;;;;;108.47;38.10;;;0.60;99.90;;;;;;4817902;29;20156;-80
2021/12/27 08:19:09;;;;;;;112.60;36.43;;;0.60;99.90;;;;;;4813772;29;20049;-80
2021/12/27 08:21:37;;;;;;;127.73;38.33;;;0.60;99.90;;;;;;4818858;29;20052;-80
2021/12/27 08:24:03;;;;;;;110.00;36.33;;;0.60;99.90;;;;;;4813536;29;20059;-80
2021/12/27 08:26:28;;;;;;;126.32;36.60;;;0.60;99.90;;;;;;4831568;29;20048;-80
2021/12/27 08:28:55;;;;;;;117.47;36.63;;;0.60;99.90;;;;;;4806713;29;20041;-80
2021/12/27 08:31:21;;;;;;;131.13;38.40;;;0.60;99.90;;;;;;4831861;29;20050;-80
2021/12/27 08:33:47;;;;;;;117.53;36.60;;;0.70;99.90;;;;;;4803935;29;20078;-80
2021/12/27 08:36:13;;;;;;;93.50;34.05;;;0.70;99.90;;;;;;4831287;29;20045;-79
2021/12/27 08:38:39;;;;;;;121.40;37.00;;;0.70;99.90;;;;;;4819139;29;20045;-80
2021/12/27 08:41:05;;;;;;;105.50;35.63;;;0.70;99.90;;;;;;4824905;29;20042;-82
2021/12/27 08:43:30;;;;;;;125.80;37.90;;;0.70;99.90;;;;;;4827878;29;20052;-80
2021/12/27 08:45:59;;;;;;;108.60;36.17;;;0.80;99.90;;;;;;4816184;29;20097;-79
2021/12/27 08:48:25;;;;;;;113.55;35.40;;;0.80;99.90;;;;;;4832967;29;20093;-79
2021/12/27 08:50:50;;;;;;;139.77;38.47;;;0.80;99.90;;;;;;4844825;29;20052;-80
2021/12/27 08:53:16;;;;;;;139.30;39.40;;;0.80;99.90;;;;;;4818899;29;20072;-80
2021/12/27 08:55:42;;;;;;;125.80;37.47;;;0.90;99.90;;;;;;4819085;29;20050;-80
2021/12/27 08:58:08;;;;;;;160.00;39.53;;;0.90;99.90;;;;;;4815168;29;20056;-80
2021/12/27 09:00:34;;;;;;;152.10;40.07;;;0.90;99.90;;;;;;4803375;29;20169;-80
2021/12/27 09:03:00;;;;;;;115.27;36.83;;;0.90;99.90;;;;;;4818745;29;20045;-81
2021/12/27 09:05:26;;;;;;;111.27;37.17;;;1.00;99.90;;;;;;4771079;29;20129;-80
2021/12/27 09:07:51;;;;;;;128.57;35.13;;;1.00;99.90;;;;;;4811518;29;20041;-79
2021/12/27 09:10:17;;;;;;;146.47;38.60;;;1.00;99.90;;;;;;4817537;29;20041;-79
2021/12/27 09:12:44;;;;;;;105.77;32.97;;;1.00;99.90;;;;;;4834489;29;20654;-79
2021/12/27 09:15:11;;;;;;;113.38;36.42;;;1.00;99.90;;;;;;4825481;29;20121;-79
2021/12/27 09:17:37;;;;;;;111.40;36.03;;;1.00;99.90;;;;;;4833197;29;20053;-81
2021/12/27 09:20:06;;;;;;;122.35;38.22;;;1.10;99.90;;;;;;4837976;29;20357;-82
2021/12/27 09:22:32;;;;;;;111.40;35.92;;;1.10;99.90;;;;;;4818764;29;20037;-81
2021/12/27 09:24:58;;;;;;;137.50;38.60;;;1.10;99.90;;;;;;4754765;29;20087;-81
2021/12/27 09:27:24;;;;;;;105.00;34.67;;;1.10;99.90;;;;;;4832719;29;20105;-81
2021/12/27 09:29:51;;;;;;;110.73;34.33;;;1.10;99.90;;;;;;4824678;29;20045;-81
2021/12/27 09:32:17;;;;;;;124.93;34.90;;;1.10;99.90;;;;;;4835906;29;20129;-81
2021/12/27 09:34:43;;;;;;;104.57;33.90;;;1.20;99.90;;;;;;4827858;29;20636;-81
2021/12/27 09:37:09;;;;;;;119.63;36.97;;;1.20;99.90;;;;;;4839231;29;20048;-81
2021/12/27 09:39:35;;;;;;;116.90;35.90;;;1.20;99.90;;;;;;4789301;29;20041;-81
2021/12/27 09:42:02;;;;;;;111.43;33.80;;;1.30;99.90;;;;;;4825838;29;20046;-81
2021/12/27 09:44:29;;;;;;;153.07;38.67;;;1.30;99.90;;;;;;4826375;29;20109;-81
2021/12/27 09:46:55;;;;;;;122.30;36.47;;;1.30;99.90;;;;;;4824724;29;20049;-81
2021/12/27 09:49:22;;;;;;;91.43;32.35;;;1.30;99.90;;;;;;4825385;29;20072;-81
2021/12/27 09:51:48;;;;;;;105.22;31.23;;;1.30;99.90;;;;;;4840551;29;20045;-81
2021/12/27 09:54:14;;;;;;;109.68;33.30;;;1.40;99.90;;;;;;4835686;29;20049;-81
2021/12/27 09:56:41;;;;;;;108.20;30.65;;;1.40;99.90;;;;;;4803444;29;20045;-81
2021/12/27 09:59:07;;;;;;;109.88;31.98;;;1.40;99.90;;;;;;4839607;29;20467;-80
2021/12/27 10:01:33;;;;;;;121.07;33.28;;;1.40;99.90;;;;;;4818808;29;20113;-81
2021/12/27 10:04:01;;;;;;;87.45;29.75;;;1.40;99.90;;;;;;4819924;29;20053;-81
2021/12/27 10:06:28;;;;;;;91.43;31.38;;;1.50;99.90;;;;;;4833540;29;20140;-81
2021/12/27 10:08:57;;;;;;;98.68;29.92;;;1.60;99.90;;;;;;4817666;29;20611;-81
2021/12/27 10:11:27;;;;;;;85.28;28.73;;;1.60;99.90;;;;;;4830199;29;20038;-82
2021/12/27 10:14:10;;;;;;;68.03;26.88;;;1.60;99.90;;;;;;4835630;29;20053;-82
2021/12/27 10:16:46;;;;;;;85.95;28.67;;;1.60;99.90;;;;;;4840332;29;20517;-82
2021/12/27 10:19:16;;;;;;;81.07;27.27;;;1.70;99.90;;;;;;4841017;29;20563;-83
2021/12/27 10:21:46;;;;;;;73.68;27.60;;;1.70;99.90;;;;;;4821028;29;20051;-82
2021/12/27 10:24:21;;;;;;;88.22;29.73;;;1.70;99.90;;;;;;4824775;29;20392;-83
2021/12/27 10:26:52;;;;;;;105.05;30.80;;;1.80;99.90;;;;;;4838590;29;20084;-83
2021/12/27 10:29:27;;;;;;;132.82;32.50;;;1.80;99.90;;;;;;4823699;29;20136;-84
2021/12/27 10:32:02;;;;;;;87.20;29.48;;;1.90;99.90;;;;;;4824435;29;20467;-83
2021/12/27 10:34:32;;;;;;;136.10;34.38;;;1.90;99.90;;;;;;4836189;29;20051;-83
2021/12/27 10:37:06;;;;;;;94.10;30.13;;;2.00;99.90;;;;;;4820517;29;20093;-83
2021/12/27 10:39:45;;;;;;;103.28;28.42;;;2.00;99.90;;;;;;4842129;29;20049;-83
2021/12/27 10:42:13;;;;;;;95.03;29.85;;;2.10;99.90;;;;;;4823404;29;20507;-83
2021/12/27 10:44:40;;;;;;;98.35;30.25;;;2.10;99.90;;;;;;4821156;29;20204;-83
2021/12/27 10:47:42;;;;;;;79.22;27.52;;;2.10;99.90;;;;;;4830832;29;20053;-82
2021/12/27 10:50:23;;;;;;;77.72;28.45;;;2.10;99.90;;;;;;4829179;29;20046;-82
2021/12/27 10:52:59;;;;;;;82.05;27.65;;;2.10;99.90;;;;;;4844547;29;20076;-83
2021/12/27 10:55:34;;;;;;;96.30;28.95;;;2.10;99.90;;;;;;4816042;29;20552;-83
2021/12/27 10:58:11;;;;;;;147.60;33.15;;;2.10;99.90;;;;;;4823025;29;20354;-83
2021/12/27 11:00:38;;;;;;;89.10;28.90;;;2.10;99.90;;;;;;4841204;29;20088;-83
2021/12/27 11:03:04;;;;;;;93.85;29.25;;;2.20;99.90;;;;;;4828859;29;20050;-83
2021/12/27 11:05:33;;;;;;;102.53;33.03;;;2.30;99.90;;;;;;4832395;29;20406;-83
2021/12/27 11:08:02;;;;;;;109.78;30.30;;;2.30;99.90;;;;;;4823627;29;20075;-82
2021/12/27 11:10:30;;;;;;;107.72;31.60;;;2.40;99.90;;;;;;4832521;29;20045;-82
2021/12/27 11:12:59;;;;;;;98.32;29.30;;;2.50;99.90;;;;;;4831649;29;20077;-82
2021/12/27 11:15:27;;;;;;;140.35;35.40;;;2.60;99.90;;;;;;4813498;29;20046;-83
2021/12/27 11:17:54;;;;;;;97.82;30.73;;;2.60;99.90;;;;;;4819553;29;20037;-83
2021/12/27 11:20:21;;;;;;;92.35;28.90;;;2.60;99.90;;;;;;4818474;29;20141;-83
2021/12/27 11:22:49;;;;;;;89.13;29.88;;;2.50;99.90;;;;;;4817503;29;20441;-82
2021/12/27 11:25:26;;;;;;;108.88;30.98;;;2.50;99.90;;;;;;4828734;29;20504;-83
2021/12/27 11:27:51;;;;;;;90.30;28.88;;;2.50;99.90;;;;;;4846765;29;20053;-83
2021/12/27 11:30:23;;;;;;;119.63;33.00;;;2.50;99.90;;;;;;4808724;29;20092;-83
2021/12/27 11:33:20;;;;;;;102.05;30.17;;;2.50;99.90;;;;;;4840427;29;20468;-84
2021/12/27 11:35:55;;;;;;;96.80;31.30;;;2.60;99.90;;;;;;4816666;29;20162;-84
2021/12/27 11:38:44;;;;;;;87.93;29.10;;;2.60;99.90;;;;;;4823806;29;20045;-84
2021/12/27 11:41:33;;;;;;;101.25;29.27;;;2.70;99.90;;;;;;4831917;29;20053;-83
2021/12/27 11:44:03;;;;;;;86.15;29.98;;;2.70;99.90;;;;;;4846391;29;20045;-83
2021/12/27 11:46:51;;;;;;;88.93;30.05;;;2.70;99.90;;;;;;4826611;29;20046;-83
2021/12/27 11:49:34;;;;;;;96.78;30.67;;;2.70;99.90;;;;;;4805357;29;20046;-84
2021/12/27 11:52:18;;;;;;;89.65;29.38;;;2.80;99.90;;;;;;4837838;29;20058;-84
2021/12/27 11:54:59;;;;;;;86.95;29.02;;;2.80;99.90;;;;;;4828999;29;20450;-84
2021/12/27 11:57:45;;;;;;;89.70;29.17;;;2.80;99.90;;;;;;4828084;29;20049;-84
2021/12/27 12:00:28;;;;;;;118.53;30.40;;;2.80;99.90;;;;;;4819310;29;20067;-84
2021/12/27 12:03:03;;;;;;;91.20;29.33;;;2.80;99.90;;;;;;4822870;29;20109;-84
2021/12/27 12:05:44;;;;;;;85.50;29.80;;;2.70;99.90;;;;;;4822605;29;20057;-84
2021/12/27 12:08:19;;;;;;;81.32;29.70;;;2.70;99.90;;;;;;4833889;29;20057;-84
2021/12/27 12:11:04;;;;;;;97.55;29.05;;;2.70;99.90;;;;;;4815662;29;20393;-84
2021/12/27 12:13:44;;;;;;;95.03;29.77;;;2.80;99.90;;;;;;4824238;29;20041;-84
2021/12/27 12:16:23;;;;;;;104.72;31.75;;;2.80;99.90;;;;;;4851396;29;20086;-84
2021/12/27 12:18:52;;;;;;;83.13;27.77;;;2.90;99.90;;;;;;4808285;29;20046;-83
2021/12/27 12:21:33;;;;;;;73.78;28.65;;;3.00;99.90;;;;;;4821712;29;20764;-83
2021/12/27 12:24:03;;;;;;;79.95;28.20;;;3.00;99.90;;;;;;4842664;29;20585;-83
2021/12/27 12:26:46;;;;;;;113.03;32.33;;;3.00;99.90;;;;;;4823396;29;20067;-83
2021/12/27 12:29:12;;;;;;;107.70;31.58;;;3.00;99.90;;;;;;4829212;29;20072;-83
2021/12/27 12:31:37;;;;;;;76.43;28.70;;;3.00;99.90;;;;;;4786158;29;20314;-83
2021/12/27 12:34:18;;;;;;;83.70;28.67;;;3.00;99.90;;;;;;4812355;29;20499;-82
2021/12/27 12:37:02;;;;;;;92.28;30.00;;;3.00;99.90;;;;;;4825072;29;20049;-82
2021/12/27 12:39:50;;;;;;;103.55;31.05;;;3.00;99.90;;;;;;4826406;29;20057;-82
2021/12/27 12:42:21;;;;;;;111.00;31.85;;;3.00;99.90;;;;;;4815239;29;20053;-82
2021/12/27 12:44:54;;;;;;;94.70;30.98;;;3.00;99.90;;;;;;4811148;29;20106;-82